Time;durP1;ratioP1;P1;durP2;ratioP2;P2;SDS_P1;SDS_P2;PMS_P1;PMS_P2;Temp;Humidity;BMP_temperature;BMP_pressure;BME280_temperature;BME280_humidity;BME280_pressure;Samples;Min_cycle;Max_cycle;Signal;HPM_P1;HPM_P2
2023/05/07 00:01:45;;;;;;;3.20;2.40;;;2.40;99.90;;;;;;4930148;28;20067;-72
2023/05/07 00:04:13;;;;;;;2.75;2.00;;;2.50;99.90;;;;;;4956559;28;20413;-65
2023/05/07 00:06:40;;;;;;;4.07;2.45;;;2.40;99.90;;;;;;4943618;28;20047;-66
2023/05/07 00:09:07;;;;;;;4.38;2.90;;;2.40;99.90;;;;;;4947844;28;20051;-62
2023/05/07 00:11:34;;;;;;;5.50;2.10;;;2.30;99.90;;;;;;4954449;28;20150;-61
2023/05/07 00:14:03;;;;;;;4.60;2.65;;;2.30;99.90;;;;;;4948883;28;20086;-73
2023/05/07 00:16:30;;;;;;;5.43;2.85;;;2.30;99.90;;;;;;4941631;28;20047;-64
2023/05/07 00:18:56;;;;;;;5.85;2.35;;;2.30;99.90;;;;;;4946412;28;20450;-62
2023/05/07 00:21:26;;;;;;;3.10;2.42;;;2.30;99.90;;;;;;4948188;28;20469;-67
2023/05/07 00:23:54;;;;;;;7.25;2.65;;;2.20;99.90;;;;;;4946580;28;20067;-66
2023/05/07 00:26:21;;;;;;;3.65;2.22;;;2.20;99.90;;;;;;4945800;28;20047;-68
2023/05/07 00:28:50;;;;;;;5.25;2.63;;;2.20;99.90;;;;;;4954255;28;20061;-65
2023/05/07 00:31:17;;;;;;;4.90;2.50;;;2.20;99.90;;;;;;4953203;28;20061;-62
2023/05/07 00:33:44;;;;;;;2.65;1.98;;;2.20;99.90;;;;;;4965304;28;20051;-61
2023/05/07 00:36:10;;;;;;;5.13;2.42;;;2.20;99.90;;;;;;4945643;28;20050;-62
2023/05/07 00:38:37;;;;;;;6.03;2.30;;;2.20;99.90;;;;;;4956831;28;20079;-62
2023/05/07 00:41:05;;;;;;;4.75;2.70;;;2.10;99.90;;;;;;4956965;28;20464;-62
2023/05/07 00:43:32;;;;;;;2.92;2.55;;;2.10;99.90;;;;;;4949463;28;20051;-63
2023/05/07 00:45:59;;;;;;;6.38;2.65;;;2.10;99.90;;;;;;4951310;28;20049;-61
2023/05/07 00:48:26;;;;;;;5.72;2.78;;;2.10;99.90;;;;;;4962267;28;20421;-69
2023/05/07 00:50:53;;;;;;;3.03;2.50;;;2.10;99.90;;;;;;4953621;28;20053;-65
2023/05/07 00:53:21;;;;;;;3.95;2.67;;;2.10;99.90;;;;;;4959240;28;20050;-61
2023/05/07 00:55:48;;;;;;;3.42;2.67;;;2.10;99.90;;;;;;4951673;28;20082;-65
2023/05/07 00:58:15;;;;;;;3.47;2.80;;;2.10;99.90;;;;;;4958965;28;20047;-68
2023/05/07 01:00:42;;;;;;;3.10;2.10;;;2.10;99.90;;;;;;4948410;28;20474;-64
2023/05/07 01:03:09;;;;;;;3.83;2.70;;;2.10;99.90;;;;;;4951791;28;20053;-61
2023/05/07 01:05:36;;;;;;;8.52;3.67;;;2.00;99.90;;;;;;4950852;28;20054;-65
2023/05/07 01:08:05;;;;;;;5.05;2.25;;;2.00;99.90;;;;;;4949928;28;20155;-61
2023/05/07 01:10:32;;;;;;;4.60;3.63;;;2.00;99.90;;;;;;4942570;28;20059;-60
2023/05/07 01:13:00;;;;;;;4.30;2.30;;;2.00;99.90;;;;;;4952690;28;20082;-62
2023/05/07 01:15:27;;;;;;;5.28;3.20;;;1.90;99.90;;;;;;4952137;28;20054;-61
2023/05/07 01:17:56;;;;;;;7.25;2.65;;;1.90;99.90;;;;;;4953899;28;20434;-61
2023/05/07 01:20:30;;;;;;;3.05;2.50;;;1.90;99.90;;;;;;4946233;28;20043;-61
2023/05/07 01:22:57;;;;;;;3.00;2.35;;;1.90;99.90;;;;;;4957718;28;20113;-63
2023/05/07 01:25:25;;;;;;;2.80;2.35;;;1.90;99.90;;;;;;4967603;28;20457;-60
2023/05/07 01:27:55;;;;;;;4.75;2.70;;;1.90;99.90;;;;;;4962421;28;20051;-65
2023/05/07 01:30:28;;;;;;;5.93;3.10;;;1.80;99.90;;;;;;4950464;28;20110;-66
2023/05/07 01:33:01;;;;;;;4.25;2.47;;;1.80;99.90;;;;;;4930768;29;20055;-65
2023/05/07 01:35:35;;;;;;;3.30;2.45;;;1.80;99.90;;;;;;4960820;28;20094;-63
2023/05/07 01:38:04;;;;;;;6.20;2.75;;;1.80;99.90;;;;;;4943409;28;20131;-72
2023/05/07 01:40:31;;;;;;;2.72;2.17;;;1.80;99.90;;;;;;4963373;28;20047;-63
2023/05/07 01:42:58;;;;;;;4.07;3.03;;;1.80;99.90;;;;;;4963442;28;20094;-62
2023/05/07 01:45:25;;;;;;;5.63;2.67;;;1.80;99.90;;;;;;4943871;28;20074;-60
2023/05/07 01:47:53;;;;;;;5.65;2.35;;;1.80;99.90;;;;;;4957537;28;20055;-66
2023/05/07 01:50:21;;;;;;;3.67;2.50;;;1.80;99.90;;;;;;4957802;28;20358;-65
2023/05/07 01:52:50;;;;;;;3.88;2.50;;;1.70;99.90;;;;;;4946731;28;20508;-60
2023/05/07 01:55:17;;;;;;;2.97;2.67;;;1.70;99.90;;;;;;4961873;28;20091;-65
2023/05/07 01:57:44;;;;;;;7.13;2.78;;;1.70;99.90;;;;;;4946624;28;20040;-59
2023/05/07 02:00:12;;;;;;;8.52;2.53;;;1.70;99.90;;;;;;4930155;29;20055;-69
2023/05/07 02:02:42;;;;;;;6.40;2.80;;;1.70;99.90;;;;;;4929860;28;20469;-61
2023/05/07 02:05:20;;;;;;;4.38;2.50;;;1.70;99.90;;;;;;4946028;28;20804;-59
2023/05/07 02:07:54;;;;;;;3.50;2.20;;;1.60;99.90;;;;;;4941230;28;20749;-63
2023/05/07 02:10:21;;;;;;;6.07;3.13;;;1.70;99.90;;;;;;4946028;28;20070;-60
2023/05/07 02:12:48;;;;;;;4.13;2.75;;;1.70;99.90;;;;;;4945324;28;20051;-63
2023/05/07 02:15:15;;;;;;;6.07;2.25;;;1.60;99.90;;;;;;4941583;28;20056;-65
2023/05/07 02:18:03;;;;;;;3.58;2.55;;;1.60;99.90;;;;;;4948725;28;20051;-62
2023/05/07 02:20:30;;;;;;;8.40;2.70;;;1.60;99.90;;;;;;4955896;28;20055;-60
2023/05/07 02:22:57;;;;;;;4.47;2.05;;;1.60;99.90;;;;;;4955487;28;20103;-64
2023/05/07 02:25:26;;;;;;;3.30;2.83;;;1.50;99.90;;;;;;4943672;28;20051;-63
2023/05/07 02:27:53;;;;;;;3.35;2.22;;;1.50;99.90;;;;;;4947708;28;20231;-61
2023/05/07 02:30:25;;;;;;;5.47;2.53;;;1.50;99.90;;;;;;4928753;28;20052;-63
2023/05/07 02:32:54;;;;;;;3.83;3.05;;;1.50;99.90;;;;;;4957596;28;20485;-67
2023/05/07 02:35:21;;;;;;;6.47;4.10;;;1.50;99.90;;;;;;4933654;28;20482;-62
2023/05/07 02:37:48;;;;;;;7.50;2.95;;;1.40;99.90;;;;;;4934526;28;20161;-67
2023/05/07 02:40:15;;;;;;;3.63;3.10;;;1.50;99.90;;;;;;4944816;28;20458;-65
2023/05/07 02:42:42;;;;;;;6.95;3.22;;;1.50;99.90;;;;;;4940118;28;20386;-65
2023/05/07 02:45:09;;;;;;;4.85;2.40;;;1.50;99.90;;;;;;4940939;28;20051;-61
2023/05/07 02:47:37;;;;;;;4.03;2.45;;;1.50;99.90;;;;;;4960685;28;20059;-66
2023/05/07 02:50:05;;;;;;;3.55;2.97;;;1.50;99.90;;;;;;4946658;28;20043;-62
2023/05/07 02:52:32;;;;;;;6.28;2.80;;;1.50;99.90;;;;;;4946865;28;20054;-61
2023/05/07 02:54:59;;;;;;;5.15;3.15;;;1.50;99.90;;;;;;4957785;28;20043;-67
2023/05/07 02:57:26;;;;;;;3.78;2.35;;;1.50;99.90;;;;;;4945964;28;20056;-64
2023/05/07 02:59:53;;;;;;;5.72;3.22;;;1.50;99.90;;;;;;4944520;28;20055;-62
2023/05/07 03:02:21;;;;;;;4.25;2.78;;;1.50;99.90;;;;;;4954412;28;20114;-62
2023/05/07 03:04:48;;;;;;;7.03;3.00;;;1.50;99.90;;;;;;4960913;28;20098;-65
2023/05/07 03:07:15;;;;;;;4.28;2.47;;;1.60;99.90;;;;;;4956292;28;20494;-63
2023/05/07 03:09:41;;;;;;;5.38;2.30;;;1.60;99.90;;;;;;4934508;29;20506;-66
2023/05/07 03:12:08;;;;;;;4.70;2.95;;;1.60;99.90;;;;;;4942739;28;20070;-68
2023/05/07 03:14:35;;;;;;;2.65;2.42;;;1.60;99.90;;;;;;4934228;28;20558;-61
2023/05/07 03:17:02;;;;;;;5.03;3.10;;;1.60;99.90;;;;;;4933830;28;20048;-65
2023/05/07 03:19:30;;;;;;;4.38;3.00;;;1.60;99.90;;;;;;4937152;28;20061;-71
2023/05/07 03:21:57;;;;;;;5.68;3.38;;;1.60;99.90;;;;;;4961721;28;20057;-62
2023/05/07 03:24:24;;;;;;;5.00;3.45;;;1.60;99.90;;;;;;4964296;28;20059;-62
2023/05/07 03:26:51;;;;;;;5.47;2.55;;;1.70;99.90;;;;;;4945175;28;20083;-61
2023/05/07 03:29:19;;;;;;;7.97;4.95;;;1.70;99.90;;;;;;4947514;28;20549;-64
2023/05/07 03:31:46;;;;;;;4.15;2.58;;;1.70;99.90;;;;;;4961589;28;20059;-65
2023/05/07 03:34:13;;;;;;;4.22;3.10;;;1.80;99.90;;;;;;4966173;28;20142;-61
2023/05/07 03:36:40;;;;;;;6.25;2.33;;;1.80;99.90;;;;;;4949663;28;20047;-62
2023/05/07 03:39:10;;;;;;;4.70;3.00;;;1.80;99.90;;;;;;4963196;28;20062;-65
2023/05/07 03:41:39;;;;;;;3.75;2.83;;;1.90;99.90;;;;;;4953920;28;20521;-66
2023/05/07 03:44:06;;;;;;;6.20;2.97;;;1.90;99.90;;;;;;4936376;28;20058;-69
2023/05/07 03:46:34;;;;;;;4.05;2.95;;;2.00;99.90;;;;;;4928372;29;20143;-63
2023/05/07 03:49:01;;;;;;;5.30;3.42;;;2.00;99.90;;;;;;4935606;29;20043;-68
2023/05/07 03:51:28;;;;;;;4.03;2.85;;;2.00;99.90;;;;;;4951854;28;20048;-61
2023/05/07 03:53:57;;;;;;;3.47;2.70;;;2.10;99.90;;;;;;4944874;28;20055;-60
2023/05/07 03:56:26;;;;;;;7.63;3.30;;;2.10;99.90;;;;;;4931589;28;20064;-64
2023/05/07 03:58:54;;;;;;;6.63;3.25;;;2.20;99.90;;;;;;4938521;29;20087;-64
2023/05/07 04:01:21;;;;;;;2.92;2.60;;;2.20;99.90;;;;;;4953246;28;20070;-61
2023/05/07 04:03:48;;;;;;;10.20;4.00;;;2.20;99.90;;;;;;4943411;28;20514;-61
2023/05/07 04:06:17;;;;;;;3.72;2.83;;;2.30;99.90;;;;;;4949334;28;20114;-63
2023/05/07 04:08:46;;;;;;;5.18;3.00;;;2.30;99.90;;;;;;4957342;28;20089;-63
2023/05/07 04:11:13;;;;;;;2.85;2.45;;;2.40;99.90;;;;;;4951397;28;20051;-64
2023/05/07 04:13:40;;;;;;;4.90;2.95;;;2.50;99.90;;;;;;4967692;28;20569;-63
2023/05/07 04:16:08;;;;;;;8.65;3.72;;;2.50;99.90;;;;;;4950882;28;20066;-68
2023/05/07 04:18:37;;;;;;;6.50;2.30;;;2.60;99.90;;;;;;4955781;28;20479;-63
2023/05/07 04:21:05;;;;;;;4.55;1.95;;;2.60;99.90;;;;;;4965300;28;20137;-61
2023/05/07 04:23:34;;;;;;;3.53;2.17;;;2.70;99.90;;;;;;4966211;28;20051;-61
2023/05/07 04:26:04;;;;;;;5.70;2.70;;;2.80;99.90;;;;;;4959119;28;20040;-65
2023/05/07 04:28:39;;;;;;;5.32;2.70;;;2.90;99.90;;;;;;4943063;28;20059;-65
2023/05/07 04:31:07;;;;;;;3.67;2.55;;;2.90;99.90;;;;;;4966408;28;20130;-61
2023/05/07 04:33:36;;;;;;;4.63;2.63;;;3.00;99.90;;;;;;4964499;28;20058;-68
2023/05/07 04:36:04;;;;;;;3.88;2.30;;;3.00;99.90;;;;;;4942566;28;20060;-65
2023/05/07 04:38:37;;;;;;;8.95;3.33;;;3.20;99.90;;;;;;4960829;28;20077;-63
2023/05/07 04:41:05;;;;;;;4.95;2.35;;;3.40;99.90;;;;;;4950373;28;20138;-70
2023/05/07 04:43:36;;;;;;;8.70;2.28;;;3.50;99.90;;;;;;4964863;28;20063;-62
2023/05/07 04:46:03;;;;;;;6.43;2.75;;;3.60;99.90;;;;;;4946308;28;20577;-71
2023/05/07 04:48:30;;;;;;;2.13;1.88;;;3.70;99.90;;;;;;4949149;28;20106;-66
2023/05/07 04:50:59;;;;;;;7.28;2.28;;;3.80;99.90;;;;;;4952523;28;20528;-79
2023/05/07 04:53:26;;;;;;;3.88;2.33;;;3.90;99.90;;;;;;4952971;28;20057;-63
2023/05/07 04:55:58;;;;;;;3.90;2.95;;;3.90;99.90;;;;;;4955297;28;20051;-61
2023/05/07 04:58:31;;;;;;;5.65;3.40;;;4.10;99.90;;;;;;4960004;28;20055;-65
2023/05/07 05:01:00;;;;;;;2.97;2.65;;;4.20;99.90;;;;;;4958128;28;20785;-65
2023/05/07 05:03:27;;;;;;;4.80;2.45;;;4.30;99.90;;;;;;4957827;28;20394;-61
2023/05/07 05:05:54;;;;;;;6.55;3.08;;;4.40;99.90;;;;;;4968315;28;20430;-63
2023/05/07 05:08:22;;;;;;;3.55;2.55;;;4.50;99.90;;;;;;4958323;28;20055;-68
2023/05/07 05:10:49;;;;;;;5.25;2.33;;;4.60;99.90;;;;;;4957869;28;20048;-64
2023/05/07 05:13:17;;;;;;;3.63;2.13;;;4.70;99.90;;;;;;4943207;28;20087;-63
2023/05/07 05:15:45;;;;;;;4.15;2.13;;;4.80;99.90;;;;;;4960760;28;20186;-77
2023/05/07 05:18:12;;;;;;;4.43;3.00;;;4.80;99.90;;;;;;4949043;28;20087;-63
2023/05/07 05:20:39;;;;;;;5.07;2.42;;;4.90;99.90;;;;;;4944055;28;20086;-63
2023/05/07 05:23:07;;;;;;;3.20;2.08;;;5.00;99.90;;;;;;4965204;28;20066;-62
2023/05/07 05:25:34;;;;;;;6.82;2.58;;;5.00;99.90;;;;;;4964059;28;20067;-61
2023/05/07 05:28:02;;;;;;;2.78;2.30;;;5.10;99.90;;;;;;4962046;28;20051;-66
2023/05/07 05:30:30;;;;;;;2.95;2.25;;;5.20;99.90;;;;;;4942501;28;20067;-72
2023/05/07 05:32:57;;;;;;;4.57;2.55;;;5.20;99.90;;;;;;4934110;29;20070;-62
2023/05/07 05:35:26;;;;;;;2.75;2.05;;;5.30;99.90;;;;;;4961209;28;20055;-61
2023/05/07 05:37:53;;;;;;;4.47;2.20;;;5.40;99.90;;;;;;4965195;28;20043;-65
2023/05/07 05:40:21;;;;;;;5.55;2.28;;;5.40;99.90;;;;;;4948760;28;20617;-64
2023/05/07 05:42:49;;;;;;;2.88;2.53;;;5.50;99.90;;;;;;4956837;28;20471;-70
2023/05/07 05:45:17;;;;;;;5.45;2.17;;;5.60;99.90;;;;;;4948155;28;20082;-66
2023/05/07 05:47:44;;;;;;;4.10;2.15;;;5.60;99.90;;;;;;4964153;28;20421;-62
2023/05/07 05:50:12;;;;;;;2.78;2.50;;;5.70;99.90;;;;;;4947573;28;20055;-62
2023/05/07 05:52:40;;;;;;;2.03;1.92;;;5.80;99.90;;;;;;4945197;28;20052;-64
2023/05/07 05:55:08;;;;;;;3.03;2.00;;;5.90;99.90;;;;;;4959053;28;20062;-60
2023/05/07 05:57:37;;;;;;;2.50;1.92;;;5.90;99.90;;;;;;4958251;28;20423;-63
2023/05/07 06:00:04;;;;;;;8.73;2.53;;;6.00;99.90;;;;;;4947703;28;20141;-62
2023/05/07 06:02:44;;;;;;;2.92;2.15;;;6.10;99.90;;;;;;4944868;28;20162;-64
2023/05/07 06:05:15;;;;;;;9.20;2.42;;;6.20;99.90;;;;;;4947376;28;20528;-64
2023/05/07 06:07:43;;;;;;;7.05;2.38;;;6.20;99.90;;;;;;4960608;28;20091;-63
2023/05/07 06:10:10;;;;;;;3.83;1.58;;;6.30;99.90;;;;;;4962946;28;20106;-66
2023/05/07 06:12:39;;;;;;;2.95;1.70;;;6.40;99.90;;;;;;4962360;28;20102;-69
2023/05/07 06:15:07;;;;;;;3.63;2.55;;;6.50;99.90;;;;;;4945695;28;20477;-62
2023/05/07 06:17:34;;;;;;;3.08;2.00;;;6.60;99.90;;;;;;4942569;28;20505;-63
2023/05/07 06:20:01;;;;;;;2.22;1.88;;;6.70;99.90;;;;;;4948706;28;20089;-64
2023/05/07 06:22:28;;;;;;;2.13;1.92;;;6.80;99.90;;;;;;4943939;28;20466;-63
2023/05/07 06:24:55;;;;;;;2.63;1.85;;;6.90;99.90;;;;;;4947289;28;20587;-64
2023/05/07 06:27:22;;;;;;;3.33;1.98;;;6.90;99.90;;;;;;4963753;28;20051;-65
2023/05/07 06:29:49;;;;;;;4.20;2.50;;;7.00;99.90;;;;;;4951417;28;20043;-64
2023/05/07 06:32:18;;;;;;;2.40;1.90;;;7.10;99.90;;;;;;4949674;28;20054;-61
2023/05/07 06:34:45;;;;;;;2.88;2.20;;;7.20;99.90;;;;;;4948288;28;20118;-80
2023/05/07 06:37:13;;;;;;;3.55;2.28;;;7.20;99.90;;;;;;4947074;28;20696;-61
2023/05/07 06:40:00;;;;;;;4.40;2.60;;;7.30;99.90;;;;;;4947987;28;20083;-65
2023/05/07 06:42:29;;;;;;;1.83;1.70;;;7.40;99.90;;;;;;4949298;28;20110;-61
2023/05/07 06:45:00;;;;;;;2.30;1.95;;;7.40;99.90;;;;;;4964168;28;20418;-69
2023/05/07 06:47:29;;;;;;;2.97;2.28;;;7.50;99.90;;;;;;4960171;28;20052;-60
2023/05/07 06:49:56;;;;;;;1.45;1.35;;;7.60;99.90;;;;;;4947258;28;20054;-60
2023/05/07 06:52:27;;;;;;;6.07;2.22;;;7.70;99.90;;;;;;4932563;29;20093;-61
2023/05/07 06:54:55;;;;;;;4.43;2.33;;;7.80;99.90;;;;;;4929843;29;20055;-61
2023/05/07 06:57:24;;;;;;;5.40;1.63;;;7.80;99.90;;;;;;4947964;28;20532;-61
2023/05/07 06:59:51;;;;;;;5.38;2.17;;;8.00;99.90;;;;;;4963237;28;20043;-68
2023/05/07 07:02:19;;;;;;;2.40;1.95;;;8.00;99.90;;;;;;4947561;28;20177;-61
2023/05/07 07:04:48;;;;;;;1.88;1.65;;;8.10;99.90;;;;;;4946387;28;20069;-68
2023/05/07 07:07:15;;;;;;;2.60;2.10;;;8.20;99.90;;;;;;4949488;28;20110;-61
2023/05/07 07:09:45;;;;;;;4.35;1.30;;;8.30;99.90;;;;;;4961984;28;20083;-60
2023/05/07 07:12:14;;;;;;;5.35;1.90;;;8.40;99.90;;;;;;4947417;28;20061;-64
2023/05/07 07:14:42;;;;;;;5.93;1.90;;;8.50;99.90;;;;;;4946298;28;20051;-59
2023/05/07 07:17:09;;;;;;;3.42;1.88;;;8.60;99.90;;;;;;4947273;28;20047;-61
2023/05/07 07:19:36;;;;;;;2.95;1.52;;;8.60;99.90;;;;;;4962641;28;20067;-64
2023/05/07 07:22:03;;;;;;;3.70;1.90;;;8.70;99.90;;;;;;4948147;28;20445;-60
2023/05/07 07:24:31;;;;;;;3.67;1.83;;;8.70;99.90;;;;;;4961531;28;20051;-60
2023/05/07 07:27:02;;;;;;;;;;;8.70;99.90;;;;;;4962413;28;20083;-66
2023/05/07 07:29:30;;;;;;;1.30;1.20;;;8.80;99.90;;;;;;4948468;28;19922;-77
2023/05/07 07:31:57;;;;;;;5.63;1.75;;;8.90;99.90;;;;;;4948011;28;20173;-75
2023/05/07 07:34:24;;;;;;;3.10;1.85;;;8.90;99.90;;;;;;4963030;28;20067;-60
2023/05/07 07:36:51;;;;;;;2.53;1.85;;;9.00;98.70;;;;;;4949507;28;20050;-66
2023/05/07 07:39:19;;;;;;;3.75;1.83;;;9.10;99.90;;;;;;4946528;28;20141;-63
2023/05/07 07:41:49;;;;;;;3.88;2.15;;;9.30;98.30;;;;;;4955914;28;20058;-64
2023/05/07 07:44:17;;;;;;;2.20;1.70;;;9.30;97.40;;;;;;4952326;28;20509;-78
2023/05/07 07:46:49;;;;;;;3.58;1.55;;;9.30;96.90;;;;;;4962258;28;20490;-61
2023/05/07 07:49:16;;;;;;;3.95;1.98;;;9.40;95.90;;;;;;4961758;28;20063;-74
2023/05/07 07:51:44;;;;;;;1.65;1.50;;;9.50;95.50;;;;;;4967997;28;20137;-61
2023/05/07 07:54:12;;;;;;;2.17;1.27;;;9.60;94.50;;;;;;4947093;28;20047;-61
2023/05/07 07:56:39;;;;;;;1.88;1.58;;;9.80;95.70;;;;;;4958919;28;20485;-69
2023/05/07 07:59:08;;;;;;;6.80;2.25;;;9.90;95.40;;;;;;4946800;28;20655;-64
2023/05/07 08:01:37;;;;;;;4.30;1.93;;;9.90;93.20;;;;;;4948668;28;20402;-62
2023/05/07 08:04:05;;;;;;;3.88;1.27;;;9.90;93.20;;;;;;4959384;28;20293;-64
2023/05/07 08:06:37;;;;;;;2.50;1.60;;;9.80;93.20;;;;;;4964480;28;20059;-61
2023/05/07 08:09:04;;;;;;;2.30;1.40;;;9.90;92.90;;;;;;4948013;28;20405;-61
2023/05/07 08:11:32;;;;;;;1.95;1.55;;;10.00;93.50;;;;;;4945217;28;20047;-62
2023/05/07 08:14:00;;;;;;;3.53;1.60;;;10.00;94.50;;;;;;4947750;28;20043;-61
2023/05/07 08:16:28;;;;;;;1.90;1.63;;;9.90;93.40;;;;;;4946389;28;20052;-65
2023/05/07 08:18:57;;;;;;;3.53;1.85;;;10.00;93.70;;;;;;4943184;28;20074;-60
2023/05/07 08:21:24;;;;;;;4.15;1.58;;;10.00;91.50;;;;;;4951629;28;20047;-66
2023/05/07 08:23:51;;;;;;;4.13;1.63;;;10.00;93.10;;;;;;4964181;28;20051;-67
2023/05/07 08:26:18;;;;;;;2.38;1.75;;;10.10;93.40;;;;;;4949991;28;20066;-61
2023/05/07 08:28:46;;;;;;;5.55;2.00;;;10.10;93.60;;;;;;4949682;28;20482;-61
2023/05/07 08:31:13;;;;;;;5.03;2.22;;;10.10;93.30;;;;;;4951680;28;20053;-61
2023/05/07 08:33:43;;;;;;;6.95;2.47;;;9.90;93.30;;;;;;4945547;28;20044;-63
2023/05/07 08:36:10;;;;;;;4.93;1.80;;;9.80;93.80;;;;;;4962825;28;20094;-60
2023/05/07 08:38:37;;;;;;;3.67;1.73;;;9.70;94.00;;;;;;4959239;28;20048;-63
2023/05/07 08:41:07;;;;;;;5.80;2.47;;;9.60;94.60;;;;;;4965119;28;20051;-60
2023/05/07 08:43:37;;;;;;;3.13;1.98;;;9.60;94.60;;;;;;4949824;28;20059;-61
2023/05/07 08:46:05;;;;;;;;;;;9.70;95.00;;;;;;4950174;28;20134;-65
2023/05/07 08:48:38;;;;;;;4.32;2.47;;;9.90;94.70;;;;;;4948576;28;19933;-60
2023/05/07 08:51:15;;;;;;;3.10;2.17;;;9.90;94.60;;;;;;4953793;28;20047;-60
2023/05/07 08:53:43;;;;;;;5.40;1.95;;;9.90;95.30;;;;;;4954116;28;20099;-62
2023/05/07 08:56:15;;;;;;;2.25;1.80;;;9.80;96.20;;;;;;4956060;28;20065;-61
2023/05/07 08:58:43;;;;;;;3.20;1.63;;;9.90;95.60;;;;;;4958182;28;20058;-62
2023/05/07 09:01:13;;;;;;;8.82;3.78;;;9.80;96.10;;;;;;4946286;28;20066;-61
2023/05/07 09:03:46;;;;;;;2.53;2.20;;;9.90;95.50;;;;;;4962183;28;20154;-63
2023/05/07 09:06:15;;;;;;;3.22;2.72;;;9.70;96.70;;;;;;4963379;28;20102;-64
2023/05/07 09:08:53;;;;;;;4.43;2.67;;;9.50;97.00;;;;;;4955889;28;20043;-61
2023/05/07 09:11:23;;;;;;;1.88;1.67;;;9.60;97.70;;;;;;4960895;28;20056;-60
2023/05/07 09:13:57;;;;;;;4.43;2.38;;;9.60;97.40;;;;;;4960927;28;20055;-67
2023/05/07 09:16:25;;;;;;;6.75;2.38;;;9.70;98.60;;;;;;4958711;28;20063;-61
2023/05/07 09:18:54;;;;;;;2.67;2.47;;;9.70;99.90;;;;;;4957139;28;20078;-61
2023/05/07 09:21:22;;;;;;;2.90;1.90;;;9.70;99.90;;;;;;4949997;28;20069;-62
2023/05/07 09:23:54;;;;;;;2.80;2.30;;;9.60;99.90;;;;;;4952104;28;20141;-71
2023/05/07 09:26:25;;;;;;;3.08;1.77;;;9.60;99.90;;;;;;4965506;28;20106;-61
2023/05/07 09:28:52;;;;;;;2.72;2.15;;;9.60;99.90;;;;;;4961250;28;21034;-69
2023/05/07 09:31:23;;;;;;;6.88;3.05;;;9.60;99.90;;;;;;4946262;28;20066;-61
2023/05/07 09:33:50;;;;;;;4.90;2.05;;;9.60;98.60;;;;;;4962032;28;20055;-61
2023/05/07 09:36:18;;;;;;;3.70;1.75;;;9.70;97.60;;;;;;4961407;28;20063;-61
2023/05/07 09:38:45;;;;;;;2.72;2.08;;;9.80;98.10;;;;;;4946029;28;20122;-64
2023/05/07 09:41:13;;;;;;;2.33;2.13;;;9.90;98.60;;;;;;4949151;28;20051;-62
2023/05/07 09:43:57;;;;;;;4.30;1.98;;;9.90;99.70;;;;;;4963204;28;20066;-62
2023/05/07 09:46:31;;;;;;;3.95;2.47;;;9.90;98.30;;;;;;4946617;28;20051;-65
2023/05/07 09:49:04;;;;;;;2.10;1.70;;;9.80;98.60;;;;;;4945169;28;20050;-63
2023/05/07 09:51:41;;;;;;;4.82;1.83;;;9.90;97.30;;;;;;4961891;28;20149;-64
2023/05/07 09:54:10;;;;;;;4.40;2.67;;;9.70;97.10;;;;;;4958318;28;20524;-63
2023/05/07 09:56:41;;;;;;;;;;;9.80;96.70;;;;;;4963229;28;20097;-64
2023/05/07 09:59:12;;;;;;;5.50;2.20;;;9.80;97.50;;;;;;4946456;28;21157;-67
2023/05/07 10:01:44;;;;;;;4.57;2.10;;;9.90;97.90;;;;;;4944578;28;20118;-68
2023/05/07 10:04:13;;;;;;;3.88;1.90;;;9.90;98.40;;;;;;4948470;28;21009;-64
2023/05/07 10:06:43;;;;;;;2.65;2.38;;;10.10;98.10;;;;;;4954447;28;20061;-67
2023/05/07 10:09:11;;;;;;;3.70;1.77;;;10.00;97.50;;;;;;4940674;28;20078;-64
2023/05/07 10:11:39;;;;;;;5.78;2.38;;;10.20;97.60;;;;;;4930094;28;20059;-68
2023/05/07 10:14:06;;;;;;;3.45;1.85;;;10.10;97.30;;;;;;4952722;28;20138;-61
2023/05/07 10:16:36;;;;;;;4.38;2.42;;;10.30;97.20;;;;;;4938949;28;20754;-61
2023/05/07 10:19:10;;;;;;;3.08;2.38;;;10.40;97.70;;;;;;4969572;28;20062;-66
2023/05/07 10:21:39;;;;;;;2.13;1.92;;;10.30;98.00;;;;;;4942298;28;20069;-72
2023/05/07 10:24:19;;;;;;;4.30;2.17;;;10.10;97.30;;;;;;4962879;28;20051;-61
2023/05/07 10:26:49;;;;;;;2.67;2.00;;;10.30;97.50;;;;;;4928446;28;20418;-64
2023/05/07 10:29:29;;;;;;;5.15;1.98;;;10.20;97.20;;;;;;4943587;28;20668;-68
2023/05/07 10:32:37;;;;;;;6.22;4.13;;;10.40;96.60;;;;;;4946141;28;20048;-61
2023/05/07 10:35:15;;;;;;;3.65;2.40;;;10.30;95.40;;;;;;4948139;28;20054;-62
2023/05/07 10:37:43;;;;;;;2.28;2.05;;;10.30;96.30;;;;;;4960018;28;20059;-61
2023/05/07 10:40:12;;;;;;;4.50;1.70;;;10.40;97.00;;;;;;4956525;28;20377;-64
2023/05/07 10:42:53;;;;;;;8.38;2.80;;;10.20;96.60;;;;;;4929666;28;20062;-73
2023/05/07 10:45:21;;;;;;;4.78;2.28;;;10.10;96.30;;;;;;4946487;28;20461;-62
2023/05/07 10:48:09;;;;;;;3.72;2.22;;;10.30;96.00;;;;;;4959455;28;20481;-73
2023/05/07 10:51:23;;;;;;;2.67;2.47;;;10.30;95.50;;;;;;4958464;28;20047;-64
2023/05/07 10:54:10;;;;;;;2.30;2.20;;;10.30;96.80;;;;;;4937529;28;20059;-64
2023/05/07 10:56:44;;;;;;;5.68;1.85;;;10.30;97.20;;;;;;4956191;28;20051;-62
2023/05/07 10:59:31;;;;;;;3.53;2.15;;;10.50;96.50;;;;;;4952572;28;20138;-62
2023/05/07 11:02:07;;;;;;;3.97;2.60;;;10.40;96.00;;;;;;4941269;28;20106;-64
2023/05/07 11:05:21;;;;;;;2.10;1.75;;;10.20;96.40;;;;;;4953702;28;20161;-66
2023/05/07 11:08:07;;;;;;;4.70;2.08;;;10.20;96.60;;;;;;4946820;28;20070;-62
2023/05/07 11:10:54;;;;;;;5.35;2.45;;;10.30;96.90;;;;;;4956525;28;20138;-62
2023/05/07 11:13:48;;;;;;;3.60;2.40;;;10.40;96.90;;;;;;4945454;28;20445;-60
2023/05/07 11:16:33;;;;;;;3.63;2.65;;;10.40;96.30;;;;;;4944801;28;20051;-65
2023/05/07 11:19:09;;;;;;;4.28;2.35;;;10.50;96.30;;;;;;4941025;28;20051;-69
2023/05/07 11:21:42;;;;;;;4.03;2.40;;;10.60;96.10;;;;;;4964024;28;20055;-65
2023/05/07 11:24:40;;;;;;;4.43;1.67;;;10.50;97.10;;;;;;4947519;28;20442;-65
2023/05/07 11:27:08;;;;;;;8.82;2.20;;;10.50;97.00;;;;;;4947294;29;20102;-63
2023/05/07 11:29:36;;;;;;;4.57;2.17;;;10.30;96.20;;;;;;4947636;28;20047;-69
2023/05/07 11:32:10;;;;;;;3.67;1.80;;;10.40;96.70;;;;;;4949178;28;20051;-62
2023/05/07 11:34:45;;;;;;;6.30;2.58;;;10.60;96.70;;;;;;4946793;28;20063;-66
2023/05/07 11:37:17;;;;;;;4.45;2.25;;;10.80;97.10;;;;;;4941203;28;21046;-66
2023/05/07 11:40:07;;;;;;;3.17;1.65;;;10.70;96.40;;;;;;4956528;28;21778;-64
2023/05/07 11:42:37;;;;;;;8.43;2.15;;;10.80;96.50;;;;;;4945919;28;20070;-65
2023/05/07 11:45:05;;;;;;;4.43;2.70;;;11.00;97.30;;;;;;4944094;28;20536;-70
2023/05/07 11:47:33;;;;;;;2.92;1.88;;;10.70;97.20;;;;;;4949354;28;20600;-66
2023/05/07 11:50:05;;;;;;;2.53;2.20;;;10.90;97.20;;;;;;4935892;28;20496;-63
2023/05/07 11:52:34;;;;;;;2.22;1.85;;;11.10;96.30;;;;;;4940444;28;20091;-64
2023/05/07 11:55:03;;;;;;;2.72;2.15;;;10.80;96.10;;;;;;4946093;28;20083;-63
2023/05/07 11:57:32;;;;;;;9.52;2.70;;;10.50;95.00;;;;;;4937148;28;20079;-62
2023/05/07 12:00:01;;;;;;;2.83;1.88;;;10.50;97.00;;;;;;4937798;28;20044;-73
2023/05/07 12:02:38;;;;;;;5.82;2.35;;;10.80;96.10;;;;;;4944943;28;20062;-69
2023/05/07 12:05:05;;;;;;;6.10;2.47;;;11.00;96.60;;;;;;4943712;28;20142;-62
2023/05/07 12:07:34;;;;;;;3.55;2.33;;;11.10;95.60;;;;;;4949712;28;20239;-62
2023/05/07 12:10:07;;;;;;;4.20;1.63;;;10.90;95.20;;;;;;4943214;28;20039;-65
2023/05/07 12:12:44;;;;;;;2.33;2.00;;;11.10;95.00;;;;;;4943886;28;20050;-63
2023/05/07 12:15:11;;;;;;;3.50;2.42;;;11.20;93.90;;;;;;4942458;28;20059;-61
2023/05/07 12:17:38;;;;;;;2.78;1.67;;;11.20;95.80;;;;;;4944851;28;20059;-59
2023/05/07 12:20:06;;;;;;;1.50;1.40;;;11.20;94.80;;;;;;4947760;28;20047;-64
2023/05/07 12:22:34;;;;;;;2.83;2.05;;;11.30;95.70;;;;;;4925118;28;20064;-69
2023/05/07 12:25:02;;;;;;;3.30;2.03;;;11.40;97.10;;;;;;4947257;28;20047;-71
2023/05/07 12:27:30;;;;;;;6.40;1.92;;;11.40;97.10;;;;;;4949291;28;20047;-65
2023/05/07 12:29:58;;;;;;;3.50;1.83;;;10.90;95.90;;;;;;4944302;28;20043;-67
2023/05/07 12:32:24;;;;;;;5.00;2.35;;;10.90;95.80;;;;;;4946281;28;20051;-65
2023/05/07 12:34:52;;;;;;;2.47;1.98;;;10.80;97.50;;;;;;4946935;28;20398;-68
2023/05/07 12:37:25;;;;;;;2.37;2.03;;;10.90;97.30;;;;;;4965548;28;20082;-65
2023/05/07 12:40:08;;;;;;;2.70;1.90;;;11.00;97.40;;;;;;4944629;28;20046;-61
2023/05/07 12:42:36;;;;;;;2.10;1.63;;;11.00;98.10;;;;;;4945166;28;20059;-61
2023/05/07 12:45:15;;;;;;;3.58;1.80;;;10.60;96.20;;;;;;4944831;28;20875;-63
2023/05/07 12:47:45;;;;;;;1.67;1.40;;;10.70;98.90;;;;;;4932340;28;20056;-63
2023/05/07 12:50:13;;;;;;;3.88;1.83;;;10.60;99.90;;;;;;4942685;28;20102;-69
2023/05/07 12:52:40;;;;;;;2.08;1.67;;;10.90;99.90;;;;;;4943672;28;20055;-64
2023/05/07 12:55:08;;;;;;;10.32;3.03;;;11.20;99.40;;;;;;4927558;29;20059;-62
2023/05/07 12:57:40;;;;;;;1.85;1.33;;;11.30;97.80;;;;;;4942667;28;20047;-62
2023/05/07 13:00:09;;;;;;;3.25;1.98;;;11.40;95.60;;;;;;4949601;28;20083;-59
2023/05/07 13:02:41;;;;;;;3.40;1.65;;;11.00;95.10;;;;;;4947139;28;20047;-61
2023/05/07 13:05:08;;;;;;;2.33;1.48;;;10.80;98.50;;;;;;4925744;28;20498;-60
2023/05/07 13:07:36;;;;;;;3.08;2.05;;;11.10;99.20;;;;;;4944738;28;20063;-64
2023/05/07 13:10:04;;;;;;;2.35;1.50;;;11.50;97.70;;;;;;4943208;28;20059;-78